Time;durP1;ratioP1;P1;durP2;ratioP2;P2;SDS_P1;SDS_P2;PMS_P1;PMS_P2;Temp;Humidity;BMP_temperature;BMP_pressure;BME280_temperature;BME280_humidity;BME280_pressure;Samples;Min_cycle;Max_cycle;Signal;HPM_P1;HPM_P2
2022/01/30 00:01:35;;;;;;;;;;;10.40;54.90;;;;;;5078576;28;20262;-70
2022/01/30 00:04:00;;;;;;;;;;;10.40;55.00;;;;;;5079845;28;20165;-70
2022/01/30 00:06:26;;;;;;;;;;;10.40;55.00;;;;;;5079827;28;20082;-70
2022/01/30 00:08:51;;;;;;;;;;;10.40;55.00;;;;;;5079866;28;19954;-69
2022/01/30 00:11:24;;;;;;;;;;;10.30;54.90;;;;;;5079819;28;19913;-70
2022/01/30 00:13:50;;;;;;;;;;;10.40;55.00;;;;;;5079724;28;19912;-70
2022/01/30 00:16:18;;;;;;;;;;;10.40;55.00;;;;;;5078159;28;19923;-70
2022/01/30 00:19:35;;;;;;;;;;;10.40;55.00;;;;;;5077773;28;20123;-70
2022/01/30 00:21:40;;;;;;;;;;;10.30;55.60;;;;;;5079123;28;19938;-70
2022/01/30 00:24:14;;;;;;;;;;;10.30;55.00;;;;;;5079640;28;20112;-70
2022/01/30 00:26:41;;;;;;;;;;;10.30;55.00;;;;;;5079540;28;19904;-69
2022/01/30 00:29:08;;;;;;;;;;;10.30;55.10;;;;;;5079595;28;19916;-69
2022/01/30 00:31:35;;;;;;;;;;;10.30;55.10;;;;;;5079470;28;19949;-70
2022/01/30 00:34:01;;;;;;;;;;;10.30;55.00;;;;;;5079556;28;19912;-71
2022/01/30 00:36:29;;;;;;;;;;;10.40;54.90;;;;;;5079435;28;19916;-70
2022/01/30 00:38:55;;;;;;;;;;;10.40;54.90;;;;;;5079563;28;19913;-69
2022/01/30 00:41:20;;;;;;;;;;;10.40;54.90;;;;;;5079983;28;19919;-70
2022/01/30 00:43:46;;;;;;;;;;;10.40;54.90;;;;;;5083350;28;20201;-69
2022/01/30 00:46:11;;;;;;;;;;;10.40;55.00;;;;;;5083289;28;19959;-70
2022/01/30 00:48:37;;;;;;;;;;;10.30;55.00;;;;;;5083277;28;19913;-69
2022/01/30 00:51:02;;;;;;;;;;;10.30;55.10;;;;;;5083179;28;20339;-69
2022/01/30 00:53:28;;;;;;;;;;;10.30;55.10;;;;;;5083235;28;20108;-70
2022/01/30 00:55:53;;;;;;;;;;;10.30;55.00;;;;;;5083079;28;19908;-69
2022/01/30 00:58:19;;;;;;;;;;;10.40;55.00;;;;;;5083113;28;19939;-69
2022/01/30 01:00:44;;;;;;;;;;;10.40;54.90;;;;;;5082985;28;19913;-69
2022/01/30 01:03:10;;;;;;;;;;;10.40;54.90;;;;;;5081723;28;19943;-70
2022/01/30 01:05:37;;;;;;;;;;;10.40;54.90;;;;;;5082893;28;19911;-70
2022/01/30 01:08:12;;;;;;;;;;;10.30;54.90;;;;;;5083175;28;19928;-70
2022/01/30 01:10:57;;;;;;;;;;;10.30;55.00;;;;;;5082907;28;20203;-70
2022/01/30 01:13:58;;;;;;;;;;;10.40;55.00;;;;;;5082847;28;20201;-69
2022/01/30 01:20:58;;;;;;;;;;;10.30;55.00;;;;;;5082789;28;19923;-69
2022/01/30 01:24:40;;;;;;;;;;;10.30;55.00;;;;;;5082613;28;19918;-70
2022/01/30 01:27:06;;;;;;;;;;;10.30;55.10;;;;;;5082544;28;19912;-70
2022/01/30 01:29:32;;;;;;;;;;;10.30;55.20;;;;;;5082465;28;19919;-69
2022/01/30 01:31:57;;;;;;;;;;;10.30;55.20;;;;;;5082514;28;19927;-69
2022/01/30 01:34:35;;;;;;;;;;;10.30;55.20;;;;;;5081068;28;19964;-69
2022/01/30 01:37:00;;;;;;;;;;;10.30;55.10;;;;;;5082422;28;19912;-69
2022/01/30 01:39:26;;;;;;;;;;;10.30;55.10;;;;;;5082314;28;20323;-70
2022/01/30 01:41:52;;;;;;;;;;;10.30;55.10;;;;;;5081944;28;19919;-69
2022/01/30 01:44:20;;;;;;;;;;;10.40;55.00;;;;;;5081001;28;19912;-69
2022/01/30 01:46:47;;;;;;;;;;;10.40;55.00;;;;;;5082191;28;19911;-69
2022/01/30 01:49:19;;;;;;;;;;;10.40;54.90;;;;;;5082191;28;19988;-69
2022/01/30 01:51:50;;;;;;;;;;;10.40;54.90;;;;;;5080888;28;19936;-70
2022/01/30 01:54:15;;;;;;;;;;;10.30;54.90;;;;;;5081632;28;19955;-70
2022/01/30 01:56:41;;;;;;;;;;;10.40;55.00;;;;;;5081989;28;19916;-70
2022/01/30 01:59:06;;;;;;;;;;;10.40;55.00;;;;;;5080703;28;20112;-69
2022/01/30 02:01:32;;;;;;;;;;;10.40;55.00;;;;;;5081880;28;19912;-70
2022/01/30 02:03:58;;;;;;;;;;;10.30;55.00;;;;;;5081926;28;19955;-70
2022/01/30 02:06:25;;;;;;;;;;;10.30;55.00;;;;;;5081839;28;19913;-71
2022/01/30 02:11:38;;;;;;;;;;;10.30;55.10;;;;;;5081716;28;19966;-70
2022/01/30 02:25:15;;;;;;;;;;;10.50;54.80;;;;;;5081476;28;19991;-69
2022/01/30 02:27:41;;;;;;;;;;;10.40;54.70;;;;;;5081432;28;19942;-70
2022/01/30 02:30:14;;;;;;;;;;;10.40;54.80;;;;;;5081322;28;19912;-70
2022/01/30 02:32:40;;;;;;;;;;;10.40;54.90;;;;;;5080122;28;19912;-69
2022/01/30 02:35:06;;;;;;;;;;;10.40;55.00;;;;;;5081180;28;20263;-69
2022/01/30 02:37:31;;;;;;;;;;;10.30;55.00;;;;;;5081121;28;19912;-68
2022/01/30 02:39:57;;;;;;;;;;;10.40;55.10;;;;;;5081105;28;20437;-69
2022/01/30 02:42:27;;;;;;;;;;;10.40;55.00;;;;;;5081080;28;20223;-69
2022/01/30 02:44:57;;;;;;;;;;;10.40;54.90;;;;;;5081030;28;19912;-70
2022/01/30 02:47:39;;;;;;;;;;;10.40;55.70;;;;;;5080925;28;19913;-70
2022/01/30 02:52:36;;;;;;;;;;;10.30;55.10;;;;;;5081171;28;19940;-69
2022/01/30 02:55:02;;;;;;;;;;;10.30;55.10;;;;;;5080790;28;20209;-70
2022/01/30 02:57:28;;;;;;;;;;;10.30;55.10;;;;;;5080795;28;19912;-70
2022/01/30 02:59:53;;;;;;;;;;;10.40;55.00;;;;;;5080754;28;19919;-70
2022/01/30 03:02:19;;;;;;;;;;;10.40;55.00;;;;;;5080732;28;19905;-69
2022/01/30 03:04:44;;;;;;;;;;;10.40;55.00;;;;;;5080007;28;19917;-70
2022/01/30 03:07:10;;;;;;;;;;;10.40;55.00;;;;;;5080420;28;20026;-69
2022/01/30 03:09:36;;;;;;;;;;;10.40;55.00;;;;;;5080541;28;19905;-69
2022/01/30 03:12:02;;;;;;;;;;;10.40;55.10;;;;;;5080506;28;20212;-69
2022/01/30 03:14:28;;;;;;;;;;;10.30;55.10;;;;;;5080437;28;19913;-70
2022/01/30 03:16:53;;;;;;;;;;;10.30;55.10;;;;;;5080300;28;20213;-69
2022/01/30 03:19:19;;;;;;;;;;;10.30;55.10;;;;;;5080362;28;20178;-69
2022/01/30 03:21:45;;;;;;;;;;;10.40;55.10;;;;;;5080368;28;19913;-68
2022/01/30 03:24:10;;;;;;;;;;;10.40;55.10;;;;;;5080291;28;19991;-69
2022/01/30 03:26:39;;;;;;;;;;;10.40;55.10;;;;;;5080318;28;19979;-69
2022/01/30 03:29:06;;;;;;;;;;;10.40;55.00;;;;;;5080213;28;19904;-68
2022/01/30 03:31:37;;;;;;;;;;;10.40;54.90;;;;;;5078852;28;19938;-69
2022/01/30 03:34:03;;;;;;;;;;;10.40;55.00;;;;;;5080207;28;19919;-70
2022/01/30 03:36:29;;;;;;;;;;;10.40;55.00;;;;;;5080006;28;19955;-69
2022/01/30 03:38:54;;;;;;;;;;;10.40;55.10;;;;;;5078797;28;19974;-69
2022/01/30 03:41:20;;;;;;;;;;;10.40;55.10;;;;;;5080123;28;19987;-69
2022/01/30 03:43:45;;;;;;;;;;;10.40;55.10;;;;;;5080020;28;19912;-70
2022/01/30 03:46:11;;;;;;;;;;;10.30;55.10;;;;;;5079954;28;20224;-70
2022/01/30 03:48:36;;;;;;;;;;;10.30;55.10;;;;;;5079941;28;19912;-70
2022/01/30 03:51:02;;;;;;;;;;;10.30;55.20;;;;;;5079892;28;19919;-69
2022/01/30 03:53:28;;;;;;;;;;;10.30;55.20;;;;;;5079885;28;19913;-69
2022/01/30 03:55:53;;;;;;;;;;;10.30;55.20;;;;;;5079839;28;20205;-69
2022/01/30 03:58:19;;;;;;;;;;;10.30;55.20;;;;;;5080111;28;19966;-69
2022/01/30 04:00:45;;;;;;;;;;;10.40;55.20;;;;;;5079862;28;19916;-69
2022/01/30 04:03:11;;;;;;;;;;;10.40;55.10;;;;;;5079763;28;19912;-69
2022/01/30 04:05:36;;;;;;;;;;;10.50;55.00;;;;;;5079784;28;19912;-70
2022/01/30 04:08:02;;;;;;;;;;;10.50;55.00;;;;;;5079774;28;20269;-69
2022/01/30 04:10:29;;;;;;;;;;;10.40;54.80;;;;;;5079726;28;20018;-69
2022/01/30 04:12:54;;;;;;;;;;;10.50;54.90;;;;;;5079735;28;20193;-69
2022/01/30 04:15:20;;;;;;;;;;;10.40;54.90;;;;;;5079565;28;19948;-70
2022/01/30 04:17:46;;;;;;;;;;;10.40;55.00;;;;;;5082224;28;19920;-69
2022/01/30 04:20:11;;;;;;;;;;;10.40;55.10;;;;;;5083915;28;19920;-70
2022/01/30 04:22:37;;;;;;;;;;;10.40;55.20;;;;;;5082507;28;19912;-70
2022/01/30 04:25:03;;;;;;;;;;;10.40;55.20;;;;;;5083716;28;19950;-69
2022/01/30 04:27:28;;;;;;;;;;;10.40;55.20;;;;;;5083626;28;19913;-70
2022/01/30 04:29:54;;;;;;;;;;;10.40;55.20;;;;;;5083696;28;20212;-69
2022/01/30 04:32:20;;;;;;;;;;;10.40;55.20;;;;;;5083577;28;20019;-69
2022/01/30 04:34:53;;;;;;;;;;;10.40;55.20;;;;;;5083536;28;19917;-70
2022/01/30 04:37:26;;;;;;;;;;;10.40;55.20;;;;;;5083516;28;19912;-71
2022/01/30 04:40:32;;;;;;;;;;;10.40;55.10;;;;;;5083452;28;20015;-69
2022/01/30 04:54:37;;;;;;;;;;;10.40;55.00;;;;;;5083190;28;19958;-69
2022/01/30 05:02:04;;;;;;;;;;;10.40;55.20;;;;;;5083075;28;19935;-70
2022/01/30 05:04:48;;;;;;;;;;;10.40;55.30;;;;;;5083239;28;19942;-69
2022/01/30 05:09:40;;;;;;;;;;;10.40;55.20;;;;;;5083079;28;19950;-69
2022/01/30 05:12:06;;;;;;;;;;;10.40;55.20;;;;;;5082838;28;20027;-69
2022/01/30 05:14:35;;;;;;;;;;;10.40;55.20;;;;;;5082732;28;20252;-69
2022/01/30 05:17:01;;;;;;;;;;;10.40;55.10;;;;;;5082503;28;19962;-69
2022/01/30 05:19:26;;;;;;;;;;;10.50;55.10;;;;;;5082751;28;19975;-67
2022/01/30 05:21:52;;;;;;;;;;;10.50;54.90;;;;;;5082659;28;19939;-70
2022/01/30 05:24:18;;;;;;;;;;;10.50;54.90;;;;;;5082590;28;19974;-69
2022/01/30 05:26:44;;;;;;;;;;;10.50;54.80;;;;;;5082604;28;19920;-69
2022/01/30 05:29:10;;;;;;;;;;;10.50;55.00;;;;;;5081410;28;19916;-70
2022/01/30 05:31:36;;;;;;;;;;;10.50;55.10;;;;;;5082474;28;20171;-69
2022/01/30 05:34:02;;;;;;;;;;;10.40;55.10;;;;;;5082364;28;20059;-70
2022/01/30 05:36:29;;;;;;;;;;;10.40;55.20;;;;;;5082369;28;19916;-69
2022/01/30 05:38:55;;;;;;;;;;;10.40;55.20;;;;;;5081131;28;20155;-70
2022/01/30 05:41:21;;;;;;;;;;;10.40;55.20;;;;;;5082364;28;20216;-69
2022/01/30 05:43:50;;;;;;;;;;;10.40;55.20;;;;;;5082294;28;19919;-69
2022/01/30 05:46:28;;;;;;;;;;;10.40;55.20;;;;;;5082270;28;20185;-70
2022/01/30 05:48:53;;;;;;;;;;;10.40;55.10;;;;;;5082273;28;19912;-70
2022/01/30 05:51:19;;;;;;;;;;;10.40;55.10;;;;;;5082205;28;20134;-69
2022/01/30 05:53:44;;;;;;;;;;;10.50;55.10;;;;;;5082161;28;20090;-69
2022/01/30 05:56:11;;;;;;;;;;;10.50;55.10;;;;;;5081989;28;19916;-70
2022/01/30 05:58:37;;;;;;;;;;;10.50;55.00;;;;;;5082015;28;19975;-69
2022/01/30 06:01:02;;;;;;;;;;;10.50;55.10;;;;;;5080611;28;19919;-69
2022/01/30 06:03:29;;;;;;;;;;;10.50;55.10;;;;;;5081957;28;19913;-70
2022/01/30 06:05:55;;;;;;;;;;;10.40;55.20;;;;;;5081830;28;19912;-71
2022/01/30 06:11:04;;;;;;;;;;;10.40;55.20;;;;;;5081790;28;19905;-69
2022/01/30 06:13:30;;;;;;;;;;;10.40;55.30;;;;;;5081761;28;20090;-70
2022/01/30 06:15:55;;;;;;;;;;;10.40;55.30;;;;;;5081407;28;19919;-70
2022/01/30 06:18:21;;;;;;;;;;;10.40;55.30;;;;;;5081542;28;19923;-70
2022/01/30 06:20:50;;;;;;;;;;;10.40;55.40;;;;;;5081564;28;20005;-70
2022/01/30 06:23:15;;;;;;;;;;;10.40;55.30;;;;;;5081501;28;19935;-70
2022/01/30 06:25:41;;;;;;;;;;;10.50;55.20;;;;;;5081524;28;20192;-70
2022/01/30 06:28:06;;;;;;;;;;;10.50;55.70;;;;;;5081430;28;20173;-69
2022/01/30 06:30:32;;;;;;;;;;;10.50;55.00;;;;;;5081396;28;19913;-70
2022/01/30 06:32:57;;;;;;;;;;;10.50;54.90;;;;;;5081293;28;19972;-69
2022/01/30 06:35:23;;;;;;;;;;;10.50;55.00;;;;;;5080146;28;20264;-69
2022/01/30 06:37:49;;;;;;;;;;;10.50;55.10;;;;;;5081175;28;19912;-69
2022/01/30 06:40:14;;;;;;;;;;;10.40;55.20;;;;;;5080961;28;19904;-69
2022/01/30 06:42:40;;;;;;;;;;;10.40;55.20;;;;;;5081091;28;20281;-69
2022/01/30 06:45:06;;;;;;;;;;;10.40;55.30;;;;;;5081093;28;19940;-69
2022/01/30 06:47:38;;;;;;;;;;;10.40;55.30;;;;;;5079700;28;19913;-69
2022/01/30 06:50:04;;;;;;;;;;;10.40;55.40;;;;;;5080998;28;19912;-69
2022/01/30 06:52:29;;;;;;;;;;;10.40;55.30;;;;;;5079579;28;19920;-69
2022/01/30 06:54:55;;;;;;;;;;;10.40;55.30;;;;;;5080821;28;20235;-70
2022/01/30 06:57:21;;;;;;;;;;;10.40;55.30;;;;;;5080858;28;19904;-69
2022/01/30 06:59:46;;;;;;;;;;;10.40;55.30;;;;;;5080865;28;19916;-69
2022/01/30 07:02:12;;;;;;;;;;;10.50;55.30;;;;;;5080795;28;19912;-69
2022/01/30 07:04:37;;;;;;;;;;;10.60;55.10;;;;;;5080658;28;19919;-70
2022/01/30 07:07:04;;;;;;;;;;;10.70;54.80;;;;;;5080975;28;20208;-69
2022/01/30 07:09:30;;;;;;;;;;;10.70;54.60;;;;;;5079364;28;20181;-70
2022/01/30 07:11:56;;;;;;;;;;;10.60;54.70;;;;;;5080559;28;19911;-69
2022/01/30 07:14:21;;;;;;;;;;;10.60;54.90;;;;;;5080513;28;20456;-69
2022/01/30 07:16:47;;;;;;;;;;;10.50;54.90;;;;;;5080466;28;19970;-69
2022/01/30 07:19:13;;;;;;;;;;;10.50;55.10;;;;;;5080394;28;20023;-69
2022/01/30 07:21:38;;;;;;;;;;;10.50;55.20;;;;;;5080368;28;19913;-70
2022/01/30 07:24:04;;;;;;;;;;;10.50;55.30;;;;;;5080356;28;19905;-70
2022/01/30 07:26:32;;;;;;;;;;;10.50;55.30;;;;;;5080205;28;19913;-69
2022/01/30 07:28:57;;;;;;;;;;;10.50;55.40;;;;;;5080344;28;19912;-70
2022/01/30 07:31:23;;;;;;;;;;;10.50;55.30;;;;;;5080187;28;20278;-69
2022/01/30 07:33:48;;;;;;;;;;;10.50;55.30;;;;;;5080124;28;19912;-69
2022/01/30 07:36:14;;;;;;;;;;;10.50;55.40;;;;;;5080050;28;20315;-70
2022/01/30 07:38:41;;;;;;;;;;;10.50;55.20;;;;;;5080061;28;20035;-69
2022/01/30 07:41:07;;;;;;;;;;;10.60;55.10;;;;;;5080070;28;19919;-70
2022/01/30 07:43:32;;;;;;;;;;;10.60;55.10;;;;;;5080032;28;19913;-69
2022/01/30 07:45:58;;;;;;;;;;;10.70;54.80;;;;;;5080078;28;19912;-70
2022/01/30 07:48:24;;;;;;;;;;;10.70;54.80;;;;;;5079972;28;20230;-69
2022/01/30 07:50:49;;;;;;;;;;;10.70;54.60;;;;;;5079617;28;19954;-70
2022/01/30 07:53:15;;;;;;;;;;;10.80;54.50;;;;;;5079803;28;19913;-70
2022/01/30 07:55:41;;;;;;;;;;;10.80;54.30;;;;;;5079895;28;19936;-70
2022/01/30 07:58:06;;;;;;;;;;;10.90;54.30;;;;;;5079877;28;19913;-70
2022/01/30 08:00:32;;;;;;;;;;;10.90;54.30;;;;;;5079826;28;19920;-70
2022/01/30 08:02:57;;;;;;;;;;;10.90;54.20;;;;;;5079916;28;19920;-70
2022/01/30 08:05:23;;;;;;;;;;;10.90;54.20;;;;;;5079767;28;19919;-70
2022/01/30 08:07:48;;;;;;;;;;;10.90;54.40;;;;;;5079806;28;19913;-71
2022/01/30 08:10:14;;;;;;;;;;;10.90;54.40;;;;;;5079774;28;19926;-70
2022/01/30 08:12:39;;;;;;;;;;;10.90;54.50;;;;;;5079721;28;19962;-70
2022/01/30 08:15:05;;;;;;;;;;;10.90;54.50;;;;;;5079700;28;19916;-70
2022/01/30 08:17:33;;;;;;;;;;;10.90;54.40;;;;;;5079412;28;19924;-70
2022/01/30 08:19:58;;;;;;;;;;;10.90;54.30;;;;;;5079698;28;19919;-70
2022/01/30 08:22:28;;;;;;;;;;;10.90;54.30;;;;;;5079678;28;19920;-69
2022/01/30 08:24:53;;;;;;;;;;;10.90;54.30;;;;;;5079637;28;19934;-69
2022/01/30 08:27:19;;;;;;;;;;;10.90;54.20;;;;;;5079632;28;20457;-69
2022/01/30 08:29:45;;;;;;;;;;;10.90;54.20;;;;;;5078326;28;19984;-69
2022/01/30 08:32:11;;;;;;;;;;;11.00;54.20;;;;;;5079549;28;19913;-71
2022/01/30 08:34:38;;;;;;;;;;;10.90;54.20;;;;;;5079483;28;19913;-70
2022/01/30 08:37:04;;;;;;;;;;;11.00;54.30;;;;;;5079431;28;19912;-70
2022/01/30 08:39:29;;;;;;;;;;;10.90;54.30;;;;;;5079478;28;19920;-69
2022/01/30 08:41:55;;;;;;;;;;;11.00;54.40;;;;;;5079511;28;20018;-70
2022/01/30 08:44:20;;;;;;;;;;;11.00;54.40;;;;;;5079408;28;19920;-69
2022/01/30 08:46:46;;;;;;;;;;;11.00;54.30;;;;;;5079356;28;19904;-70
2022/01/30 08:49:13;;;;;;;;;;;11.00;54.30;;;;;;5079379;28;20274;-70
2022/01/30 08:51:38;;;;;;;;;;;11.00;54.40;;;;;;5079390;28;20201;-70
2022/01/30 08:54:04;;;;;;;;;;;11.00;54.30;;;;;;5079376;28;19916;-70
2022/01/30 08:56:30;;;;;;;;;;;11.00;54.30;;;;;;5077915;28;19916;-70
2022/01/30 08:58:55;;;;;;;;;;;11.00;54.40;;;;;;5079338;28;19947;-69
2022/01/30 09:01:21;;;;;;;;;;;11.00;54.30;;;;;;5079304;28;19971;-69
2022/01/30 09:03:46;;;;;;;;;;;11.10;54.40;;;;;;5081969;28;19919;-70
2022/01/30 09:06:12;;;;;;;;;;;11.10;54.40;;;;;;5083009;28;19955;-69
2022/01/30 09:08:37;;;;;;;;;;;11.00;54.40;;;;;;5082924;28;19913;-68
2022/01/30 09:11:03;;;;;;;;;;;11.10;54.40;;;;;;5082848;28;19913;-69
2022/01/30 09:13:28;;;;;;;;;;;11.00;54.40;;;;;;5082824;28;19983;-69
2022/01/30 09:15:57;;;;;;;;;;;11.00;54.40;;;;;;5082526;28;19946;-69
2022/01/30 09:18:25;;;;;;;;;;;11.00;54.40;;;;;;5082754;28;19917;-69
2022/01/30 09:20:50;;;;;;;;;;;11.00;54.40;;;;;;5082724;28;20119;-70
2022/01/30 09:23:16;;;;;;;;;;;11.10;54.50;;;;;;5082648;28;19912;-69
2022/01/30 09:25:42;;;;;;;;;;;11.00;54.40;;;;;;5082556;28;20247;-70
2022/01/30 09:28:07;;;;;;;;;;;11.00;54.40;;;;;;5082578;28;19912;-70
2022/01/30 09:30:33;;;;;;;;;;;11.00;54.40;;;;;;5082571;28;20129;-70
2022/01/30 09:32:59;;;;;;;;;;;11.10;54.50;;;;;;5082508;28;19979;-69
2022/01/30 09:35:24;;;;;;;;;;;11.00;54.40;;;;;;5082384;28;19916;-69
2022/01/30 09:37:50;;;;;;;;;;;11.00;54.40;;;;;;5082431;28;19913;-72
2022/01/30 09:40:17;;;;;;;;;;;11.10;54.50;;;;;;5082385;28;19904;-70
2022/01/30 09:42:44;;;;;;;;;;;11.10;54.50;;;;;;5082371;28;19955;-70
2022/01/30 09:45:10;;;;;;;;;;;11.10;54.50;;;;;;5082242;28;19947;-74
2022/01/30 09:47:36;;;;;;;;;;;11.10;54.50;;;;;;5082299;28;19905;-71
2022/01/30 09:50:03;;;;;;;;;;;11.10;54.50;;;;;;5082135;28;19912;-70
2022/01/30 09:52:29;;;;;;;;;;;11.10;54.50;;;;;;5082076;28;19919;-69
2022/01/30 09:54:54;;;;;;;;;;;11.10;54.60;;;;;;5082020;28;19917;-70
2022/01/30 09:57:20;;;;;;;;;;;11.10;54.60;;;;;;5080780;28;19912;-70
2022/01/30 09:59:46;;;;;;;;;;;11.10;54.60;;;;;;5082080;28;19935;-70
2022/01/30 10:02:12;;;;;;;;;;;11.10;54.50;;;;;;5081960;28;19983;-70
2022/01/30 10:04:39;;;;;;;;;;;11.00;54.50;;;;;;5081940;28;20162;-70
2022/01/30 10:07:13;;;;;;;;;;;11.10;54.60;;;;;;5081884;28;19913;-70
2022/01/30 10:09:44;;;;;;;;;;;11.00;54.50;;;;;;5080531;28;19974;-70
2022/01/30 10:12:20;;;;;;;;;;;11.10;54.60;;;;;;5081815;28;20208;-70
2022/01/30 10:14:52;;;;;;;;;;;11.00;54.50;;;;;;5079897;28;20296;-70
2022/01/30 10:17:25;;;;;;;;;;;11.10;54.60;;;;;;5081342;28;19932;-70
2022/01/30 10:20:01;;;;;;;;;;;11.10;54.70;;;;;;5081665;28;19923;-69
2022/01/30 10:22:26;;;;;;;;;;;11.10;54.60;;;;;;5081644;28;19911;-69
2022/01/30 10:24:52;;;;;;;;;;;11.10;54.60;;;;;;5081555;28;19975;-70
2022/01/30 10:27:21;;;;;;;;;;;11.10;54.60;;;;;;5081524;28;19913;-69
2022/01/30 10:29:57;;;;;;;;;;;11.10;54.70;;;;;;5080451;28;20266;-70
2022/01/30 10:32:22;;;;;;;;;;;11.10;54.50;;;;;;5081418;28;19987;-70
2022/01/30 10:34:55;;;;;;;;;;;11.10;54.50;;;;;;5081348;28;20105;-69
2022/01/30 10:37:24;;;;;;;;;;;11.20;54.50;;;;;;5080044;28;19931;-70
2022/01/30 10:40:11;;;;;;;;;;;11.20;54.50;;;;;;5081266;28;19904;-71
2022/01/30 10:42:38;;;;;;;;;;;11.20;54.50;;;;;;5081193;28;19984;-70
2022/01/30 10:45:12;;;;;;;;;;;11.20;54.50;;;;;;5081081;28;20155;-71
2022/01/30 10:47:39;;;;;;;;;;;11.20;54.50;;;;;;5081062;28;19912;-70
2022/01/30 10:50:12;;;;;;;;;;;11.20;54.50;;;;;;5080982;28;19905;-69
2022/01/30 10:53:07;;;;;;;;;;;11.20;54.50;;;;;;5081602;28;20311;-70
2022/01/30 10:55:37;;;;;;;;;;;11.20;54.50;;;;;;5084725;28;19955;-69
2022/01/30 10:58:03;;;;;;;;;;;11.20;54.60;;;;;;5080821;28;20093;-69
2022/01/30 11:00:55;;;;;;;;;;;11.20;54.60;;;;;;5080861;28;19919;-69
2022/01/30 11:03:39;;;;;;;;;;;11.20;54.70;;;;;;5081380;28;19904;-70
2022/01/30 11:06:11;;;;;;;;;;;11.20;54.80;;;;;;5080646;28;19943;-70
2022/01/30 11:08:40;;;;;;;;;;;11.10;54.80;;;;;;5080735;28;20157;-71
2022/01/30 11:11:14;;;;;;;;;;;11.10;54.80;;;;;;5080657;28;20249;-70
2022/01/30 11:19:11;;;;;;;;;;;11.20;54.90;;;;;;5080471;28;19916;-69
2022/01/30 11:21:38;;;;;;;;;;;11.10;54.90;;;;;;5080431;28;19912;-70
2022/01/30 11:24:04;;;;;;;;;;;11.20;54.90;;;;;;5080346;28;19944;-70
2022/01/30 11:26:30;;;;;;;;;;;11.10;54.80;;;;;;5079491;28;19912;-70
2022/01/30 11:28:56;;;;;;;;;;;11.20;54.70;;;;;;5080297;28;19904;-70
2022/01/30 11:31:22;;;;;;;;;;;11.20;54.80;;;;;;5080307;28;20393;-70
2022/01/30 11:33:48;;;;;;;;;;;11.20;54.80;;;;;;5080290;28;19912;-70
2022/01/30 11:36:14;;;;;;;;;;;11.20;54.80;;;;;;5080096;28;19987;-71
2022/01/30 11:38:40;;;;;;;;;;;11.20;54.80;;;;;;5080174;28;20248;-70
2022/01/30 11:41:08;;;;;;;;;;;11.10;54.80;;;;;;5080137;28;19950;-70
2022/01/30 11:43:34;;;;;;;;;;;11.10;54.70;;;;;;5080071;28;19904;-70
2022/01/30 11:46:16;;;;;;;;;;;11.10;54.80;;;;;;5080013;28;19954;-70
2022/01/30 11:48:42;;;;;;;;;;;11.10;54.90;;;;;;5080089;28;19954;-70
2022/01/30 11:51:08;;;;;;;;;;;11.10;54.80;;;;;;5080036;28;19916;-70
2022/01/30 11:53:36;;;;;;;;;;;11.10;54.80;;;;;;5080396;28;19913;-70
2022/01/30 11:56:03;;;;;;;;;;;11.20;54.80;;;;;;5079881;28;19924;-70
2022/01/30 11:58:35;;;;;;;;;;;11.20;54.80;;;;;;5080004;28;19912;-69
2022/01/30 12:01:19;;;;;;;;;;;11.20;54.80;;;;;;5079861;28;19986;-70
2022/01/30 12:03:51;;;;;;;;;;;11.20;54.70;;;;;;5079866;28;19919;-70
2022/01/30 12:06:20;;;;;;;;;;;11.10;54.70;;;;;;5079883;28;19916;-70
2022/01/30 12:08:49;;;;;;;;;;;11.20;54.70;;;;;;5079835;28;19913;-70
2022/01/30 12:11:33;;;;;;;;;;;11.20;54.80;;;;;;5079733;28;19912;-70
2022/01/30 12:13:59;;;;;;;;;;;11.20;54.70;;;;;;5079790;28;20247;-71
2022/01/30 12:16:43;;;;;;;;;;;11.20;54.70;;;;;;5078233;28;19998;-70
2022/01/30 12:19:09;;;;;;;;;;;11.20;54.60;;;;;;5079718;28;19924;-71
2022/01/30 12:21:34;;;;;;;;;;;11.20;54.60;;;;;;5078473;28;19919;-71
2022/01/30 12:24:18;;;;;;;;;;;11.20;54.70;;;;;;5079723;28;19913;-70
2022/01/30 12:26:51;;;;;;;;;;;11.20;54.70;;;;;;5079606;28;19934;-70
2022/01/30 12:29:35;;;;;;;;;;;11.20;54.60;;;;;;5079663;28;19905;-70
2022/01/30 12:32:19;;;;;;;;;;;11.20;54.60;;;;;;5079611;28;19905;-71
2022/01/30 12:35:05;;;;;;;;;;;11.20;54.60;;;;;;5079538;28;19913;-70
2022/01/30 12:37:31;;;;;;;;;;;11.20;54.60;;;;;;5080251;28;19975;-70
2022/01/30 12:39:57;;;;;;;;;;;11.20;54.70;;;;;;5083581;28;20216;-70
2022/01/30 12:42:25;;;;;;;;;;;11.20;54.80;;;;;;5083521;28;19919;-70
2022/01/30 12:44:51;;;;;;;;;;;11.20;54.70;;;;;;5083399;28;19905;-71
2022/01/30 12:47:17;;;;;;;;;;;11.20;54.80;;;;;;5083418;28;20106;-70
2022/01/30 12:49:47;;;;;;;;;;;11.20;54.70;;;;;;5083355;28;19950;-71
2022/01/30 12:52:29;;;;;;;;;;;11.20;54.70;;;;;;5083396;28;20212;-70
2022/01/30 12:55:00;;;;;;;;;;;11.20;54.60;;;;;;5083247;28;19905;-70
2022/01/30 12:57:26;;;;;;;;;;;11.20;54.70;;;;;;5083253;28;19912;-70
2022/01/30 12:59:53;;;;;;;;;;;11.20;54.70;;;;;;5083013;28;20006;-70
2022/01/30 13:02:19;;;;;;;;;;;11.10;54.60;;;;;;5083136;28;20112;-70
2022/01/30 13:04:46;;;;;;;;;;;11.20;54.70;;;;;;5083102;28;19912;-70
2022/01/30 13:07:13;;;;;;;;;;;11.20;54.60;;;;;;5083052;28;19940;-70
2022/01/30 13:09:38;;;;;;;;;;;11.20;54.50;;;;;;5082981;28;19913;-70
2022/01/30 13:12:14;;;;;;;;;;;11.20;54.60;;;;;;5082869;28;19950;-70
2022/01/30 13:14:43;;;;;;;;;;;11.20;54.60;;;;;;5082838;28;20056;-70
2022/01/30 13:17:10;;;;;;;;;;;11.20;54.70;;;;;;5082690;28;19932;-71
2022/01/30 13:19:35;;;;;;;;;;;11.20;54.80;;;;;;5082817;28;19913;-70
2022/01/30 13:22:03;;;;;;;;;;;11.20;54.80;;;;;;5082787;28;20211;-71
2022/01/30 13:24:29;;;;;;;;;;;11.20;54.70;;;;;;5082723;28;19913;-71
2022/01/30 13:26:58;;;;;;;;;;;11.20;54.70;;;;;;5082612;28;20224;-71
2022/01/30 13:29:25;;;;;;;;;;;11.10;54.70;;;;;;5082563;28;19975;-71
2022/01/30 13:31:53;;;;;;;;;;;11.10;54.70;;;;;;5082527;28;20101;-70
2022/01/30 13:34:18;;;;;;;;;;;11.20;54.70;;;;;;5082540;28;20137;-70
2022/01/30 13:36:53;;;;;;;;;;;11.20;54.80;;;;;;5082467;28;19909;-71
2022/01/30 13:39:25;;;;;;;;;;;11.20;54.80;;;;;;5082484;28;19912;-70
2022/01/30 13:42:01;;;;;;;;;;;11.20;54.90;;;;;;5082063;28;19912;-70
2022/01/30 13:44:50;;;;;;;;;;;11.20;54.80;;;;;;5082382;28;19966;-70
2022/01/30 13:47:22;;;;;;;;;;;11.20;54.70;;;;;;5082423;28;20275;-70
2022/01/30 13:49:49;;;;;;;;;;;11.20;54.60;;;;;;5081306;28;19983;-70
2022/01/30 13:52:18;;;;;;;;;;;11.20;54.70;;;;;;5082155;28;19912;-70
2022/01/30 13:54:57;;;;;;;;;;;11.10;54.70;;;;;;5082032;28;19983;-70
2022/01/30 13:57:28;;;;;;;;;;;11.20;54.80;;;;;;5082029;28;19912;-70
2022/01/30 14:00:02;;;;;;;;;;;11.20;54.80;;;;;;5082065;28;20201;-70
2022/01/30 14:02:28;;;;;;;;;;;11.20;54.80;;;;;;5082039;28;19904;-70
2022/01/30 14:04:53;;;;;;;;;;;11.20;54.70;;;;;;5081986;28;19912;-72
2022/01/30 14:07:20;;;;;;;;;;;11.20;54.70;;;;;;5081918;28;19940;-70
2022/01/30 14:09:49;;;;;;;;;;;11.10;54.80;;;;;;5081911;28;19911;-70
2022/01/30 14:12:15;;;;;;;;;;;11.10;54.70;;;;;;5081830;28;20248;-71
2022/01/30 14:14:41;;;;;;;;;;;11.20;54.80;;;;;;5080480;28;19913;-70
2022/01/30 14:17:09;;;;;;;;;;;11.20;54.80;;;;;;5081464;28;19927;-70
2022/01/30 14:19:41;;;;;;;;;;;11.20;54.80;;;;;;5081749;28;19913;-70
2022/01/30 14:22:25;;;;;;;;;;;11.20;54.80;;;;;;5081719;28;19912;-70
2022/01/30 14:24:50;;;;;;;;;;;11.20;54.80;;;;;;5081613;28;19912;-71
2022/01/30 14:27:16;;;;;;;;;;;11.20;54.80;;;;;;5081516;28;19911;-70
2022/01/30 14:29:42;;;;;;;;;;;11.10;54.80;;;;;;5081543;28;19996;-71
2022/01/30 14:32:20;;;;;;;;;;;11.10;54.70;;;;;;5081463;28;19912;-70
2022/01/30 14:34:46;;;;;;;;;;;11.10;54.80;;;;;;5081399;28;19920;-70
2022/01/30 14:37:11;;;;;;;;;;;11.20;54.80;;;;;;5081413;28;19904;-70
2022/01/30 14:39:37;;;;;;;;;;;11.10;54.70;;;;;;5081363;28;19924;-70
2022/01/30 14:42:05;;;;;;;;;;;11.20;54.80;;;;;;5081247;28;19954;-71
2022/01/30 14:44:31;;;;;;;;;;;11.20;54.80;;;;;;5081158;28;19905;-70
2022/01/30 14:46:57;;;;;;;;;;;11.20;54.80;;;;;;5079954;28;20251;-69
2022/01/30 14:49:22;;;;;;;;;;;11.20;54.70;;;;;;5081133;28;19918;-70
2022/01/30 14:51:48;;;;;;;;;;;11.20;54.70;;;;;;5081054;28;20199;-69
2022/01/30 14:54:15;;;;;;;;;;;11.10;54.80;;;;;;5080998;28;19920;-69
2022/01/30 14:56:40;;;;;;;;;;;11.10;54.90;;;;;;5080836;28;19991;-69
2022/01/30 14:59:06;;;;;;;;;;;11.20;54.90;;;;;;5080927;28;19911;-70
2022/01/30 15:01:32;;;;;;;;;;;11.20;54.70;;;;;;5080741;28;19991;-70
2022/01/30 15:03:58;;;;;;;;;;;11.20;54.80;;;;;;5080812;28;20224;-70
2022/01/30 15:06:24;;;;;;;;;;;11.20;54.60;;;;;;5080769;28;19952;-70
2022/01/30 15:08:50;;;;;;;;;;;11.20;54.60;;;;;;5080751;28;20108;-70
2022/01/30 15:11:15;;;;;;;;;;;11.20;54.70;;;;;;5080780;28;20423;-69